Time;durP1;ratioP1;P1;durP2;ratioP2;P2;SDS_P1;SDS_P2;PMS_P1;PMS_P2;Temp;Humidity;BMP_temperature;BMP_pressure;BME280_temperature;BME280_humidity;BME280_pressure;Samples;Min_cycle;Max_cycle;Signal;HPM_P1;HPM_P2
2020/12/12 00:02:01;;;;;;;40.58;24.83;;;5.00;99.90;;;;;;5051615;28;20562;-53
2020/12/12 00:04:26;;;;;;;40.22;26.02;;;5.00;99.90;;;;;;5033905;28;20048;-55
2020/12/12 00:06:52;;;;;;;39.25;25.38;;;5.10;99.90;;;;;;5014609;28;20017;-53
2020/12/12 00:09:17;;;;;;;47.60;26.77;;;5.20;99.90;;;;;;5037878;28;20031;-50
2020/12/12 00:11:43;;;;;;;39.63;25.55;;;5.20;99.90;;;;;;5051603;28;20017;-52
2020/12/12 00:14:08;;;;;;;37.20;24.95;;;5.20;99.90;;;;;;5047409;28;20017;-56
2020/12/12 00:16:33;;;;;;;40.80;24.02;;;5.20;99.90;;;;;;5032497;28;20026;-57
2020/12/12 00:18:59;;;;;;;43.38;25.77;;;5.20;99.90;;;;;;5017088;28;20025;-51
2020/12/12 00:21:24;;;;;;;39.33;24.75;;;5.20;99.90;;;;;;5051625;28;20474;-53
2020/12/12 00:23:51;;;;;;;39.63;25.38;;;5.20;99.90;;;;;;5032272;28;20035;-53
2020/12/12 00:26:25;;;;;;;38.70;24.77;;;5.20;99.90;;;;;;5031567;28;20033;-53
2020/12/12 00:28:51;;;;;;;44.90;25.70;;;5.20;99.90;;;;;;5031929;28;20060;-56
2020/12/12 00:31:18;;;;;;;43.70;27.33;;;5.20;99.90;;;;;;5031251;28;20435;-50
2020/12/12 00:33:44;;;;;;;39.55;26.08;;;5.30;99.90;;;;;;5032446;28;20378;-50
2020/12/12 00:36:10;;;;;;;40.88;24.77;;;5.20;99.90;;;;;;5030017;28;20028;-51
2020/12/12 00:38:35;;;;;;;40.15;26.35;;;5.20;99.90;;;;;;5050556;28;20025;-53
2020/12/12 00:41:01;;;;;;;40.50;25.73;;;5.20;99.90;;;;;;5031138;28;20031;-57
2020/12/12 00:43:26;;;;;;;42.10;26.10;;;5.30;99.90;;;;;;5031224;28;20021;-50
2020/12/12 00:45:52;;;;;;;39.45;25.70;;;5.20;99.90;;;;;;5049695;28;20025;-51
2020/12/12 00:48:18;;;;;;;37.88;24.02;;;5.20;99.90;;;;;;5051120;28;20485;-54
2020/12/12 00:50:45;;;;;;;39.30;23.90;;;5.20;99.90;;;;;;5034241;28;20028;-54
2020/12/12 00:53:10;;;;;;;35.22;23.83;;;5.20;99.90;;;;;;5030958;28;20029;-52
2020/12/12 00:55:36;;;;;;;36.83;24.60;;;5.10;99.90;;;;;;5045726;28;20544;-52
2020/12/12 00:58:01;;;;;;;39.83;24.08;;;5.10;99.90;;;;;;5051096;28;20021;-56
2020/12/12 01:00:32;;;;;;;36.25;24.27;;;5.20;99.90;;;;;;5049369;28;20055;-54
2020/12/12 01:03:01;;;;;;;40.15;24.83;;;5.20;99.90;;;;;;5050953;28;20025;-54
2020/12/12 01:05:27;;;;;;;37.38;23.98;;;5.20;99.90;;;;;;5020267;28;20501;-53
2020/12/12 01:07:53;;;;;;;39.50;23.73;;;5.20;99.90;;;;;;5013201;28;20030;-54
2020/12/12 01:10:19;;;;;;;38.65;24.70;;;5.20;99.90;;;;;;5031882;28;20017;-57
2020/12/12 01:12:44;;;;;;;38.42;24.25;;;5.10;99.90;;;;;;5030900;28;20486;-51
2020/12/12 01:15:10;;;;;;;41.38;25.63;;;5.10;99.90;;;;;;5039111;28;20028;-55
2020/12/12 01:17:35;;;;;;;38.03;24.45;;;5.10;99.90;;;;;;5050849;28;20028;-54
2020/12/12 01:20:01;;;;;;;38.40;22.70;;;5.10;99.90;;;;;;5043355;28;20025;-53
2020/12/12 01:22:27;;;;;;;38.78;23.08;;;5.10;99.90;;;;;;5030375;28;20433;-53
2020/12/12 01:24:52;;;;;;;37.53;22.00;;;5.10;99.90;;;;;;5035500;28;20025;-53
2020/12/12 01:27:18;;;;;;;40.70;23.98;;;5.10;99.90;;;;;;5050591;28;20055;-54
2020/12/12 01:29:43;;;;;;;39.72;22.58;;;5.10;99.90;;;;;;5047285;28;20024;-53
2020/12/12 01:32:09;;;;;;;34.63;21.42;;;5.10;99.90;;;;;;5030541;28;20454;-51
2020/12/12 01:34:34;;;;;;;36.00;22.13;;;5.10;99.90;;;;;;5035521;28;20370;-51
2020/12/12 01:37:00;;;;;;;35.85;21.80;;;5.20;99.90;;;;;;5050275;28;20045;-52
2020/12/12 01:39:26;;;;;;;41.00;23.80;;;5.20;99.90;;;;;;5033022;28;20100;-52
2020/12/12 01:41:55;;;;;;;33.90;21.63;;;5.30;99.90;;;;;;5030327;28;20017;-54
2020/12/12 01:44:20;;;;;;;38.53;23.10;;;5.30;99.90;;;;;;5046189;28;20037;-52
2020/12/12 01:46:48;;;;;;;36.47;21.73;;;5.30;99.90;;;;;;5050115;28;20579;-52
2020/12/12 01:49:14;;;;;;;36.28;20.80;;;5.20;99.90;;;;;;5035954;28;20104;-52
2020/12/12 01:51:40;;;;;;;35.75;20.90;;;5.20;99.90;;;;;;5030406;28;20560;-53
2020/12/12 01:54:08;;;;;;;34.88;19.73;;;5.20;99.90;;;;;;5031637;28;20040;-54
2020/12/12 01:56:33;;;;;;;34.00;20.70;;;5.20;99.90;;;;;;5030331;28;20071;-52
2020/12/12 01:58:59;;;;;;;34.67;20.02;;;5.20;99.90;;;;;;5040886;28;20024;-49
2020/12/12 02:01:27;;;;;;;32.58;20.40;;;5.20;99.90;;;;;;5050215;28;20061;-51
2020/12/12 02:03:56;;;;;;;29.88;19.30;;;5.20;99.90;;;;;;5049800;22;20178;-56
2020/12/12 02:06:22;;;;;;;31.13;18.67;;;5.20;99.90;;;;;;5052131;28;20033;-60
2020/12/12 02:08:52;;;;;;;30.17;19.40;;;5.20;99.90;;;;;;5070351;28;20035;-58
2020/12/12 02:11:18;;;;;;;29.05;18.13;;;5.20;99.90;;;;;;5052002;28;20025;-59
2020/12/12 02:13:47;;;;;;;27.85;18.20;;;5.20;99.90;;;;;;5050805;28;20025;-60
2020/12/12 02:16:17;;;;;;;28.70;18.13;;;5.30;99.90;;;;;;5052018;28;20391;-53
2020/12/12 02:18:43;;;;;;;27.08;17.92;;;5.30;99.90;;;;;;5052084;28;20066;-51
2020/12/12 02:21:09;;;;;;;23.55;16.67;;;5.30;99.90;;;;;;5051970;28;20024;-55
2020/12/12 02:23:35;;;;;;;27.77;17.25;;;5.40;99.90;;;;;;5051577;28;20017;-58
2020/12/12 02:26:01;;;;;;;24.63;16.45;;;5.40;99.90;;;;;;5052573;28;20119;-60
2020/12/12 02:28:39;;;;;;;23.65;16.02;;;5.50;99.90;;;;;;5053042;28;20035;-58
2020/12/12 02:31:04;;;;;;;25.30;16.85;;;5.50;99.90;;;;;;5052983;28;20401;-56
2020/12/12 02:33:30;;;;;;;26.90;17.42;;;5.50;99.90;;;;;;5055181;28;20023;-60
2020/12/12 02:35:57;;;;;;;27.35;17.50;;;5.50;99.90;;;;;;5056217;28;20021;-56
2020/12/12 02:38:23;;;;;;;27.75;17.85;;;5.50;99.90;;;;;;5055828;28;20073;-60
2020/12/12 02:40:49;;;;;;;26.92;16.90;;;5.40;99.90;;;;;;5055827;28;20025;-52
2020/12/12 02:43:15;;;;;;;24.95;17.05;;;5.40;99.90;;;;;;5054274;28;20047;-52
2020/12/12 02:45:45;;;;;;;24.05;17.33;;;5.50;99.90;;;;;;5056483;28;20021;-55
2020/12/12 02:48:10;;;;;;;33.80;18.90;;;5.50;99.90;;;;;;5055806;28;20032;-54
2020/12/12 02:50:36;;;;;;;28.05;17.42;;;5.50;99.90;;;;;;5055694;28;20343;-52
2020/12/12 02:53:02;;;;;;;32.85;19.90;;;5.50;99.90;;;;;;5054789;28;20415;-54
2020/12/12 02:55:27;;;;;;;31.27;18.48;;;5.50;99.90;;;;;;5055432;28;20017;-55
2020/12/12 02:57:53;;;;;;;29.70;18.02;;;5.50;99.90;;;;;;5055498;28;20485;-58
2020/12/12 03:00:21;;;;;;;29.67;18.33;;;5.60;99.90;;;;;;5055559;28;20452;-64
2020/12/12 03:02:47;;;;;;;31.80;18.40;;;5.70;99.90;;;;;;5054822;28;20059;-58
2020/12/12 03:05:13;;;;;;;34.40;18.58;;;5.70;99.90;;;;;;5055365;28;20449;-53
2020/12/12 03:07:38;;;;;;;33.00;18.67;;;5.70;99.90;;;;;;5055561;28;20028;-52
2020/12/12 03:10:06;;;;;;;33.45;21.00;;;5.80;99.90;;;;;;5055214;28;20025;-52
2020/12/12 03:12:33;;;;;;;39.78;21.30;;;5.90;99.90;;;;;;5072572;28;20095;-54
2020/12/12 03:14:59;;;;;;;35.72;19.92;;;5.90;99.90;;;;;;5055112;28;20029;-53
2020/12/12 03:17:25;;;;;;;36.65;21.30;;;5.80;99.90;;;;;;5055105;28;20024;-55
2020/12/12 03:19:51;;;;;;;36.80;21.02;;;5.80;99.90;;;;;;5054958;28;20074;-54
2020/12/12 03:22:17;;;;;;;33.83;20.02;;;5.70;99.90;;;;;;5054275;28;20133;-53
2020/12/12 03:24:42;;;;;;;34.95;20.45;;;5.60;99.90;;;;;;5054811;28;20119;-54
2020/12/12 03:27:08;;;;;;;32.88;20.85;;;5.60;99.90;;;;;;5054728;28;20024;-55
2020/12/12 03:29:37;;;;;;;33.53;18.88;;;5.60;99.90;;;;;;5054601;28;20486;-57
2020/12/12 03:32:11;;;;;;;28.67;19.10;;;5.60;99.90;;;;;;5071790;28;20017;-56
2020/12/12 03:34:38;;;;;;;28.47;18.60;;;5.60;99.90;;;;;;5054517;28;20020;-52
2020/12/12 03:37:04;;;;;;;30.42;19.38;;;5.60;99.90;;;;;;5054387;28;20016;-56
2020/12/12 03:39:30;;;;;;;26.27;17.52;;;5.60;99.90;;;;;;5054493;28;20178;-56
2020/12/12 03:41:56;;;;;;;31.48;18.48;;;5.70;99.90;;;;;;5053571;28;20111;-59
2020/12/12 03:44:22;;;;;;;32.78;19.55;;;5.80;99.90;;;;;;5053867;28;20077;-56
2020/12/12 03:46:48;;;;;;;31.75;20.80;;;5.90;99.90;;;;;;5054274;28;20051;-53
2020/12/12 03:49:13;;;;;;;33.22;19.27;;;5.90;99.90;;;;;;5054243;28;20020;-49
2020/12/12 03:51:39;;;;;;;30.35;18.83;;;5.90;99.90;;;;;;5053770;28;20020;-67
2020/12/12 03:54:04;;;;;;;32.97;18.73;;;5.90;99.90;;;;;;5054077;28;20397;-52
2020/12/12 03:56:30;;;;;;;27.27;17.98;;;5.80;99.90;;;;;;5054197;28;20390;-58
2020/12/12 03:58:56;;;;;;;28.70;18.73;;;5.80;99.90;;;;;;5053832;28;20024;-53
2020/12/12 04:01:21;;;;;;;27.65;18.20;;;5.80;99.90;;;;;;5054088;28;20021;-50
2020/12/12 04:03:47;;;;;;;32.72;18.92;;;5.80;99.90;;;;;;5053250;28;20663;-56
2020/12/12 04:06:13;;;;;;;31.17;20.70;;;5.90;99.90;;;;;;5053905;28;20027;-55
2020/12/12 04:08:38;;;;;;;28.67;18.45;;;6.00;99.90;;;;;;5054009;28;20024;-51
2020/12/12 04:11:04;;;;;;;27.77;18.30;;;6.00;99.90;;;;;;5053844;28;20025;-51
2020/12/12 04:13:30;;;;;;;31.48;18.77;;;5.90;99.90;;;;;;5051171;28;20488;-54
2020/12/12 04:15:55;;;;;;;28.15;17.42;;;5.80;99.90;;;;;;5053589;28;20528;-51
2020/12/12 04:18:21;;;;;;;35.15;19.60;;;5.90;99.90;;;;;;5053711;28;20020;-54
2020/12/12 04:20:47;;;;;;;30.13;18.63;;;5.80;99.90;;;;;;5053760;28;20532;-54
2020/12/12 04:23:13;;;;;;;28.38;18.83;;;5.80;99.90;;;;;;5053129;28;20051;-57
2020/12/12 04:25:38;;;;;;;29.48;18.55;;;5.80;99.90;;;;;;5053539;28;20031;-56
2020/12/12 04:28:04;;;;;;;25.52;18.17;;;5.70;99.90;;;;;;5053333;28;20031;-59
2020/12/12 04:30:30;;;;;;;32.10;18.50;;;5.80;99.90;;;;;;5053392;28;20024;-51
2020/12/12 04:32:56;;;;;;;29.63;18.48;;;5.90;99.90;;;;;;5052681;28;20485;-54
2020/12/12 04:35:21;;;;;;;29.38;19.00;;;5.80;99.90;;;;;;5053238;28;20031;-59
2020/12/12 04:37:47;;;;;;;28.88;19.00;;;5.80;99.90;;;;;;5053120;28;20546;-55
2020/12/12 04:40:13;;;;;;;29.13;18.48;;;5.80;99.90;;;;;;5053627;28;20078;-57
2020/12/12 04:42:42;;;;;;;28.20;18.05;;;5.70;99.90;;;;;;5051684;28;20071;-54
2020/12/12 04:45:11;;;;;;;31.13;18.65;;;5.70;99.90;;;;;;5053216;28;20392;-55
2020/12/12 04:47:42;;;;;;;29.60;18.85;;;5.70;99.90;;;;;;5053163;28;20499;-53
2020/12/12 04:50:08;;;;;;;29.75;17.85;;;5.70;99.90;;;;;;5053072;28;20098;-54
2020/12/12 04:52:38;;;;;;;28.67;18.60;;;5.70;99.90;;;;;;5052436;28;20012;-51
2020/12/12 04:55:05;;;;;;;27.90;17.80;;;5.70;99.90;;;;;;5052497;28;20024;-58
2020/12/12 04:57:35;;;;;;;25.15;16.67;;;5.70;99.90;;;;;;5052930;28;20030;-55
2020/12/12 05:00:09;;;;;;;29.38;18.70;;;5.70;99.90;;;;;;5052854;28;20111;-51
2020/12/12 05:02:35;;;;;;;28.45;17.13;;;5.80;99.90;;;;;;5052263;28;20523;-57
2020/12/12 05:05:01;;;;;;;24.50;17.17;;;5.80;99.90;;;;;;5053055;28;20041;-55
2020/12/12 05:07:27;;;;;;;31.58;19.05;;;5.80;99.90;;;;;;5052812;28;20496;-56
2020/12/12 05:09:53;;;;;;;31.88;19.30;;;5.90;99.90;;;;;;5052934;28;20073;-55
2020/12/12 05:12:19;;;;;;;32.03;18.48;;;5.90;99.90;;;;;;5052457;28;20025;-58
2020/12/12 05:14:49;;;;;;;30.20;19.15;;;5.80;99.90;;;;;;5052785;28;20073;-55
2020/12/12 05:17:15;;;;;;;31.40;18.27;;;5.90;99.90;;;;;;5052769;28;20214;-54
2020/12/12 05:19:41;;;;;;;28.45;18.40;;;5.80;99.90;;;;;;5070595;28;20100;-58
2020/12/12 05:22:06;;;;;;;31.15;19.75;;;5.80;99.90;;;;;;5052341;28;20036;-52
2020/12/12 05:24:32;;;;;;;27.85;17.90;;;5.80;99.90;;;;;;5053172;28;20029;-50
2020/12/12 05:27:01;;;;;;;35.08;18.20;;;5.70;99.90;;;;;;5052688;28;20550;-49
2020/12/12 05:29:28;;;;;;;27.60;18.23;;;5.80;99.90;;;;;;5053139;28;20028;-54
2020/12/12 05:31:58;;;;;;;29.10;18.55;;;5.70;99.90;;;;;;5052159;28;20107;-53
2020/12/12 05:34:26;;;;;;;29.23;18.45;;;5.70;99.90;;;;;;5052881;28;20101;-52
2020/12/12 05:36:52;;;;;;;32.83;19.50;;;5.70;99.90;;;;;;5052641;28;20027;-55
2020/12/12 05:39:18;;;;;;;36.05;20.65;;;5.70;99.90;;;;;;5052573;28;20503;-56
2020/12/12 05:41:46;;;;;;;33.67;21.30;;;5.70;99.90;;;;;;5052647;28;20025;-54
2020/12/12 05:44:12;;;;;;;32.95;18.98;;;5.70;99.90;;;;;;5052523;28;20070;-59
2020/12/12 05:46:38;;;;;;;31.83;19.63;;;5.80;99.90;;;;;;5052852;28;20420;-58
2020/12/12 05:49:04;;;;;;;33.17;20.20;;;5.70;99.90;;;;;;5052417;28;20059;-54
2020/12/12 05:51:31;;;;;;;32.53;19.75;;;5.70;99.90;;;;;;5052449;28;20532;-54
2020/12/12 05:53:58;;;;;;;35.33;20.95;;;5.70;99.90;;;;;;5051365;28;20047;-53
2020/12/12 05:56:25;;;;;;;39.20;22.40;;;5.70;99.90;;;;;;5052220;28;20203;-58
2020/12/12 05:58:52;;;;;;;35.22;20.27;;;5.70;99.90;;;;;;5052372;28;20021;-52
2020/12/12 06:01:22;;;;;;;34.70;20.60;;;5.70;99.90;;;;;;5052410;28;20416;-56
2020/12/12 06:04:02;;;;;;;32.58;19.88;;;5.60;99.90;;;;;;5051546;28;20040;-58
2020/12/12 06:06:28;;;;;;;31.67;20.77;;;5.60;99.90;;;;;;5053688;28;20021;-58
2020/12/12 06:09:00;;;;;;;36.53;22.67;;;5.60;99.90;;;;;;5056410;28;20020;-64
2020/12/12 06:11:28;;;;;;;35.85;21.70;;;5.50;99.90;;;;;;5055162;28;20087;-61
2020/12/12 06:13:58;;;;;;;39.45;21.45;;;5.60;99.90;;;;;;5055061;28;20021;-63
2020/12/12 06:16:25;;;;;;;35.50;20.92;;;5.50;99.90;;;;;;5055940;28;20071;-56
2020/12/12 06:19:11;;;;;;;38.40;20.50;;;5.50;99.90;;;;;;5056031;28;20504;-56
2020/12/12 06:21:41;;;;;;;;;;;5.60;99.90;;;;;;5056489;28;20028;-54
2020/12/12 06:24:10;;;;;;;34.45;20.95;;;5.70;99.90;;;;;;5055055;28;19904;-54
2020/12/12 06:26:46;;;;;;;38.38;21.55;;;5.60;99.90;;;;;;5073846;28;20035;-54
2020/12/12 06:29:15;;;;;;;35.45;20.90;;;5.70;99.90;;;;;;5055787;28;20039;-55
2020/12/12 06:31:42;;;;;;;35.17;21.27;;;5.70;99.90;;;;;;5055494;28;20029;-62
2020/12/12 06:34:07;;;;;;;32.78;20.65;;;5.60;99.90;;;;;;5055227;28;20033;-50
2020/12/12 06:36:34;;;;;;;38.53;23.63;;;5.70;99.90;;;;;;5055482;28;20021;-53
2020/12/12 06:39:21;;;;;;;35.92;21.52;;;5.70;99.90;;;;;;5055575;28;20047;-51
2020/12/12 06:41:55;;;;;;;36.38;21.65;;;5.60;99.90;;;;;;5055055;28;20024;-56
2020/12/12 06:44:35;;;;;;;34.70;19.50;;;5.60;99.90;;;;;;5054389;28;20079;-57
2020/12/12 06:47:01;;;;;;;37.90;21.25;;;5.60;99.90;;;;;;5055742;28;20290;-57
2020/12/12 06:49:27;;;;;;;37.25;21.00;;;5.60;99.90;;;;;;5055431;28;20485;-62
2020/12/12 06:51:53;;;;;;;32.42;20.98;;;5.60;99.90;;;;;;5054896;28;20121;-54
2020/12/12 06:54:20;;;;;;;35.92;21.30;;;5.60;99.90;;;;;;5054984;28;20501;-55
2020/12/12 06:56:46;;;;;;;37.22;22.52;;;5.50;99.90;;;;;;5055407;28;20393;-59
2020/12/12 06:59:35;;;;;;;32.70;20.67;;;5.50;99.90;;;;;;5055120;28;20024;-58
2020/12/12 07:02:06;;;;;;;36.83;21.40;;;5.60;99.90;;;;;;5072247;28;20029;-57
2020/12/12 07:04:38;;;;;;;37.95;21.90;;;5.60;99.90;;;;;;5054783;28;20064;-54
2020/12/12 07:07:05;;;;;;;34.67;20.58;;;5.70;99.90;;;;;;5055174;28;20036;-60
2020/12/12 07:09:32;;;;;;;38.45;21.48;;;5.70;99.90;;;;;;5054959;28;20510;-52
2020/12/12 07:11:58;;;;;;;35.13;20.60;;;5.70;99.90;;;;;;5054335;28;20031;-59
2020/12/12 07:14:24;;;;;;;32.45;19.90;;;5.60;99.90;;;;;;5072792;28;20020;-59
2020/12/12 07:16:52;;;;;;;35.58;20.17;;;5.80;99.90;;;;;;5054978;28;20043;-56
2020/12/12 07:19:45;;;;;;;39.05;21.05;;;5.80;99.90;;;;;;5054173;28;20024;-59
2020/12/12 07:22:12;;;;;;;42.55;21.58;;;5.80;99.90;;;;;;5054005;28;20025;-57
2020/12/12 07:24:38;;;;;;;40.83;22.55;;;5.80;99.90;;;;;;5054523;28;20028;-57
2020/12/12 07:27:04;;;;;;;38.28;21.77;;;5.70;99.90;;;;;;5054675;28;20497;-60
2020/12/12 07:29:31;;;;;;;32.65;19.77;;;5.80;99.90;;;;;;5054413;28;20162;-55
2020/12/12 07:31:57;;;;;;;37.55;20.52;;;5.70;99.90;;;;;;5053984;28;20020;-53
2020/12/12 07:34:25;;;;;;;36.17;20.38;;;5.70;99.90;;;;;;5053925;28;20024;-57
2020/12/12 07:37:02;;;;;;;37.38;19.92;;;5.70;99.90;;;;;;5054441;28;20078;-54
2020/12/12 07:39:30;;;;;;;36.05;21.38;;;5.70;99.90;;;;;;5054315;28;20438;-53
2020/12/12 07:41:58;;;;;;;33.75;20.17;;;5.70;99.90;;;;;;5053786;28;20021;-58
2020/12/12 07:44:24;;;;;;;38.90;21.63;;;5.70;99.90;;;;;;5071881;28;20090;-57
2020/12/12 07:46:54;;;;;;;35.88;21.65;;;5.80;99.90;;;;;;5054348;28;20515;-57
2020/12/12 07:49:20;;;;;;;39.58;21.00;;;5.80;99.90;;;;;;5054096;28;20029;-52
2020/12/12 07:51:45;;;;;;;34.20;19.45;;;5.80;99.90;;;;;;5053964;28;20050;-54
2020/12/12 07:54:22;;;;;;;31.55;20.10;;;5.80;99.90;;;;;;5053269;28;20027;-55
2020/12/12 07:56:49;;;;;;;32.95;19.85;;;5.70;99.90;;;;;;5054121;28;20025;-56
2020/12/12 07:59:19;;;;;;;36.45;19.88;;;5.70;99.90;;;;;;5054011;28;20046;-55
2020/12/12 08:01:48;;;;;;;35.08;20.52;;;5.80;99.90;;;;;;5054167;28;20090;-54
2020/12/12 08:04:33;;;;;;;32.90;19.65;;;5.80;99.90;;;;;;5076442;22;21483;-53
2020/12/12 08:07:19;;;;;;;33.28;20.77;;;5.80;99.90;;;;;;5054214;28;20560;-54
2020/12/12 08:09:50;;;;;;;35.80;19.97;;;5.80;99.90;;;;;;5053789;28;20032;-51
2020/12/12 08:12:29;;;;;;;34.97;20.20;;;5.90;99.90;;;;;;5051250;28;20088;-53
2020/12/12 08:15:20;;;;;;;35.53;21.55;;;6.00;99.90;;;;;;5053685;28;20021;-49
2020/12/12 08:17:46;;;;;;;32.15;19.77;;;6.00;99.90;;;;;;5053749;28;20021;-49
2020/12/12 08:20:17;;;;;;;31.90;18.98;;;5.90;99.90;;;;;;5053568;28;20028;-49
2020/12/12 08:22:43;;;;;;;30.17;17.45;;;6.00;99.90;;;;;;5052817;28;20055;-50
2020/12/12 08:25:10;;;;;;;29.35;19.48;;;6.00;99.90;;;;;;5053427;28;20169;-50
2020/12/12 08:27:36;;;;;;;30.35;18.55;;;6.00;99.90;;;;;;5053530;28;20028;-56
2020/12/12 08:30:06;;;;;;;30.00;19.08;;;6.00;99.90;;;;;;5052361;28;20374;-54
2020/12/12 08:32:34;;;;;;;29.08;19.63;;;6.00;99.90;;;;;;5052824;28;20074;-52
2020/12/12 08:35:11;;;;;;;28.38;19.27;;;6.00;99.90;;;;;;5053171;28;20023;-50
2020/12/12 08:37:36;;;;;;;28.48;17.75;;;6.10;99.90;;;;;;5053164;28;20104;-52
2020/12/12 08:40:10;;;;;;;30.33;17.58;;;6.10;99.90;;;;;;5052958;28;20481;-57
2020/12/12 08:42:36;;;;;;;28.75;18.42;;;6.10;99.90;;;;;;5051291;28;20024;-49
2020/12/12 08:45:13;;;;;;;31.60;19.23;;;6.10;99.90;;;;;;5053078;28;20025;-54
2020/12/12 08:47:38;;;;;;;30.80;19.15;;;6.10;99.90;;;;;;5053239;28;20032;-53
2020/12/12 08:50:04;;;;;;;28.92;18.85;;;6.20;99.90;;;;;;5053449;28;20094;-54
2020/12/12 08:52:29;;;;;;;29.67;18.83;;;6.20;99.90;;;;;;5052634;28;20056;-49
2020/12/12 08:54:59;;;;;;;32.20;18.15;;;6.20;99.90;;;;;;5052949;28;20025;-49
2020/12/12 08:57:25;;;;;;;27.95;17.83;;;6.10;99.90;;;;;;5053139;28;20063;-51
2020/12/12 09:00:00;;;;;;;29.20;17.40;;;6.10;99.90;;;;;;5052922;28;20474;-50
2020/12/12 09:02:27;;;;;;;31.67;18.98;;;6.00;99.90;;;;;;5052358;28;20035;-51
2020/12/12 09:05:06;;;;;;;31.77;19.85;;;6.00;99.90;;;;;;5052694;28;20032;-51
2020/12/12 09:07:31;;;;;;;31.38;19.40;;;6.10;99.90;;;;;;5053360;28;20021;-52
2020/12/12 09:10:07;;;;;;;33.22;20.48;;;6.20;99.90;;;;;;5053132;28;20530;-55
2020/12/12 09:12:43;;;;;;;39.63;21.45;;;6.30;99.90;;;;;;5052869;28;20021;-55
2020/12/12 09:15:09;;;;;;;34.28;20.10;;;6.40;99.90;;;;;;5052768;28;20074;-55
2020/12/12 09:17:34;;;;;;;41.20;22.63;;;6.40;99.90;;;;;;5052602;28;20017;-49
2020/12/12 09:20:00;;;;;;;38.97;22.77;;;6.30;99.90;;;;;;5052435;28;20035;-52
2020/12/12 09:22:25;;;;;;;41.33;22.15;;;6.20;99.90;;;;;;5051879;28;20070;-56
2020/12/12 09:24:51;;;;;;;46.63;23.10;;;6.20;99.90;;;;;;5052620;28;20030;-58
2020/12/12 09:27:17;;;;;;;40.45;24.02;;;6.20;99.90;;;;;;5052811;28;20128;-52
2020/12/12 09:29:42;;;;;;;40.38;22.85;;;6.30;99.90;;;;;;5052466;28;20541;-52
2020/12/12 09:32:08;;;;;;;40.05;21.80;;;6.10;99.90;;;;;;5052143;28;20020;-53
2020/12/12 09:34:37;;;;;;;43.75;23.85;;;6.10;99.90;;;;;;5052253;28;20508;-54
2020/12/12 09:37:02;;;;;;;41.65;22.70;;;6.10;99.90;;;;;;5052371;28;20016;-49
2020/12/12 09:39:28;;;;;;;37.80;22.17;;;6.20;99.90;;;;;;5052416;28;20097;-52
2020/12/12 09:42:00;;;;;;;39.17;23.17;;;6.20;99.90;;;;;;5052229;28;20032;-52
2020/12/12 09:44:29;;;;;;;43.03;22.63;;;6.20;99.90;;;;;;5052276;28;20029;-52
2020/12/12 09:46:55;;;;;;;39.65;22.63;;;6.20;99.90;;;;;;5053290;28;20436;-52
2020/12/12 09:49:21;;;;;;;45.47;22.15;;;6.20;99.90;;;;;;5070458;28;20107;-49
2020/12/12 09:51:47;;;;;;;44.72;24.20;;;6.20;99.90;;;;;;5052258;28;20481;-47
2020/12/12 09:54:14;;;;;;;39.65;22.77;;;6.30;99.90;;;;;;5051652;28;20413;-53
2020/12/12 09:56:39;;;;;;;38.50;22.60;;;6.40;99.90;;;;;;5056776;28;20024;-55
2020/12/12 09:59:05;;;;;;;41.95;22.35;;;6.40;99.90;;;;;;5052437;28;20024;-50
2020/12/12 10:01:31;;;;;;;41.97;21.63;;;6.30;99.90;;;;;;5044936;28;20074;-55
2020/12/12 10:03:56;;;;;;;41.50;23.42;;;6.40;99.90;;;;;;5032237;28;20031;-56
2020/12/12 10:06:22;;;;;;;39.70;21.33;;;6.50;99.90;;;;;;5039853;28;20036;-52
2020/12/12 10:08:48;;;;;;;36.03;22.60;;;6.50;99.90;;;;;;5053049;28;20027;-54
2020/12/12 10:11:14;;;;;;;38.70;21.77;;;6.50;99.90;;;;;;5047379;28;20048;-51
2020/12/12 10:13:39;;;;;;;36.90;20.75;;;6.50;99.90;;;;;;5047591;28;20032;-50
2020/12/12 10:16:05;;;;;;;33.92;19.58;;;6.60;99.90;;;;;;5042991;28;20028;-51
2020/12/12 10:18:31;;;;;;;33.70;20.70;;;6.70;99.90;;;;;;5043166;28;20021;-55
2020/12/12 10:20:57;;;;;;;38.97;19.70;;;6.60;99.90;;;;;;5033160;28;20032;-48
2020/12/12 10:23:22;;;;;;;32.75;20.55;;;6.60;99.90;;;;;;5031837;28;20052;-48
2020/12/12 10:25:48;;;;;;;32.90;20.05;;;6.60;99.90;;;;;;5034810;28;20025;-50
2020/12/12 10:28:13;;;;;;;30.63;19.92;;;6.50;99.90;;;;;;5032179;28;20076;-53
2020/12/12 10:30:39;;;;;;;36.75;21.27;;;6.60;99.90;;;;;;5036775;28;20029;-53
2020/12/12 10:33:05;;;;;;;34.65;21.42;;;6.50;99.90;;;;;;5032430;28;20025;-49
2020/12/12 10:35:31;;;;;;;33.72;21.67;;;6.60;99.90;;;;;;5049894;28;20106;-52
2020/12/12 10:37:58;;;;;;;37.13;20.77;;;6.70;99.90;;;;;;5041725;28;20190;-48
2020/12/12 10:40:32;;;;;;;36.00;20.92;;;6.70;99.90;;;;;;5032046;28;20060;-48
2020/12/12 10:42:57;;;;;;;37.83;21.40;;;6.70;99.90;;;;;;5037532;28;20040;-50
2020/12/12 10:45:23;;;;;;;40.28;21.10;;;6.80;99.90;;;;;;5031081;28;20025;-46
2020/12/12 10:47:49;;;;;;;40.40;22.10;;;6.80;99.90;;;;;;5053324;28;20484;-50
2020/12/12 10:50:14;;;;;;;49.58;24.80;;;6.80;99.90;;;;;;5062108;28;20043;-47
2020/12/12 10:52:41;;;;;;;40.35;23.48;;;6.80;99.90;;;;;;5068939;28;20016;-52
2020/12/12 10:55:06;;;;;;;45.13;25.33;;;6.80;99.90;;;;;;5071648;28;20025;-52
2020/12/12 10:57:32;;;;;;;38.03;21.90;;;6.80;99.90;;;;;;5065636;28;20024;-50
2020/12/12 10:59:59;;;;;;;40.92;24.58;;;6.80;99.90;;;;;;5050478;28;20032;-51
2020/12/12 11:02:28;;;;;;;41.15;23.85;;;6.80;99.90;;;;;;5052452;28;20024;-53
2020/12/12 11:04:54;;;;;;;45.10;24.60;;;6.70;99.90;;;;;;5055802;28;20683;-49
2020/12/12 11:07:19;;;;;;;47.17;24.60;;;6.70;99.90;;;;;;5049395;28;20100;-47
2020/12/12 11:09:46;;;;;;;44.28;25.00;;;6.70;99.90;;;;;;5066853;28;20056;-49
2020/12/12 11:12:13;;;;;;;43.08;24.48;;;6.80;99.90;;;;;;5072060;28;20052;-46
2020/12/12 11:14:39;;;;;;;46.30;24.80;;;6.70;99.90;;;;;;5072621;28;20027;-52
2020/12/12 11:17:04;;;;;;;47.47;25.65;;;6.80;99.90;;;;;;5067410;28;20021;-50
2020/12/12 11:19:30;;;;;;;45.40;24.08;;;6.80;99.90;;;;;;5052787;28;20075;-45
2020/12/12 11:21:56;;;;;;;44.00;24.73;;;6.80;99.90;;;;;;5064831;28;20380;-47
2020/12/12 11:24:22;;;;;;;48.20;27.02;;;6.80;99.90;;;;;;5051777;28;20098;-50
2020/12/12 11:26:48;;;;;;;47.17;27.00;;;6.80;99.90;;;;;;5063434;28;20538;-46
2020/12/12 11:29:14;;;;;;;46.42;24.23;;;6.80;99.90;;;;;;5061977;28;20115;-45
2020/12/12 11:31:42;;;;;;;45.47;24.83;;;6.90;99.90;;;;;;5052703;28;20060;-45
2020/12/12 11:37:24;;;;;;;40.35;21.73;;;6.90;99.90;;;;;;5049925;28;20036;-46
2020/12/12 11:40:04;;;;;;;39.30;21.70;;;6.80;99.90;;;;;;5054554;28;20051;-48
2020/12/12 11:43:30;;;;;;;37.92;21.50;;;6.90;99.90;;;;;;5071554;28;20556;-53
2020/12/12 11:48:02;;;;;;;41.38;23.30;;;6.80;99.90;;;;;;5072279;28;20032;-50
2020/12/12 11:50:29;;;;;;;46.42;23.20;;;6.90;99.90;;;;;;5056259;28;20381;-50
2020/12/12 11:52:56;;;;;;;51.58;27.15;;;7.00;99.90;;;;;;5051735;28;20166;-44
2020/12/12 11:55:23;;;;;;;46.67;25.90;;;6.90;99.90;;;;;;5038809;28;20017;-52
2020/12/12 11:57:49;;;;;;;42.00;24.50;;;6.80;99.90;;;;;;5070257;28;20017;-47
2020/12/12 12:00:15;;;;;;;35.15;22.58;;;6.70;99.90;;;;;;5071713;28;20057;-44
2020/12/12 12:02:41;;;;;;;36.67;22.75;;;6.70;99.90;;;;;;5071390;28;20110;-49
2020/12/12 12:05:07;;;;;;;40.08;23.25;;;6.60;99.90;;;;;;5066778;28;20487;-46
2020/12/12 12:07:39;;;;;;;42.60;24.85;;;6.50;99.90;;;;;;5057561;28;20052;-50
2020/12/12 12:12:46;;;;;;;38.28;22.85;;;6.60;99.90;;;;;;5055365;28;20659;-48
2020/12/12 12:15:11;;;;;;;33.95;21.58;;;6.70;99.90;;;;;;5040296;28;20024;-46
2020/12/12 12:17:37;;;;;;;42.00;22.10;;;6.60;99.90;;;;;;5071480;28;20016;-45
2020/12/12 12:20:05;;;;;;;43.67;23.48;;;6.60;99.90;;;;;;5066369;28;20024;-48
2020/12/12 12:22:30;;;;;;;40.88;24.70;;;6.70;99.90;;;;;;5056311;28;20028;-47
2020/12/12 12:24:57;;;;;;;43.75;24.02;;;6.70;99.90;;;;;;5071598;28;20029;-52
2020/12/12 12:27:23;;;;;;;39.00;24.00;;;6.70;99.90;;;;;;5070716;28;20078;-50
2020/12/12 12:29:49;;;;;;;37.40;23.33;;;6.70;99.90;;;;;;5063717;28;20083;-49
2020/12/12 12:32:15;;;;;;;36.75;23.30;;;6.70;99.90;;;;;;5058631;28;20064;-48
2020/12/12 12:34:40;;;;;;;42.78;22.65;;;6.70;99.90;;;;;;5082280;28;20035;-60
2020/12/12 12:37:07;;;;;;;39.65;23.48;;;6.80;99.90;;;;;;5078935;28;20024;-51
2020/12/12 12:39:32;;;;;;;41.58;24.05;;;6.90;99.90;;;;;;5070768;28;20024;-54
2020/12/12 12:41:58;;;;;;;46.38;23.73;;;7.00;99.90;;;;;;5070413;28;20012;-52
2020/12/12 12:44:23;;;;;;;47.30;24.55;;;7.20;99.90;;;;;;5039438;28;20063;-61
2020/12/12 12:46:49;;;;;;;50.20;26.27;;;7.10;99.90;;;;;;5070747;28;20028;-61
2020/12/12 12:49:16;;;;;;;53.50;28.02;;;7.20;99.90;;;;;;5063724;28;20100;-62